createdAt,value
2018-01-08T00:02:22.126Z,2.90
2018-01-08T00:04:49.643Z,2.90
2018-01-08T00:07:17.329Z,2.90
2018-01-08T00:09:44.835Z,2.80
2018-01-08T00:12:12.331Z,2.80
2018-01-08T00:14:40.592Z,2.80
2018-01-08T00:17:08.835Z,2.80
2018-01-08T00:19:36.838Z,2.80
2018-01-08T00:22:05.851Z,2.80
2018-01-08T00:24:33.340Z,2.80
2018-01-08T00:27:00.827Z,2.80
2018-01-08T00:29:28.322Z,2.70
2018-01-08T00:31:55.826Z,2.60
2018-01-08T00:34:24.062Z,2.60
2018-01-08T00:36:51.527Z,2.60
2018-01-08T00:39:18.996Z,2.60
2018-01-08T00:41:46.543Z,2.60
2018-01-08T00:44:14.006Z,2.70
2018-01-08T00:46:41.492Z,2.80
2018-01-08T00:49:08.959Z,2.80
2018-01-08T00:51:36.418Z,2.80
2018-01-08T00:54:03.921Z,2.90
2018-01-08T00:56:31.422Z,2.90
2018-01-08T00:58:58.921Z,3.00
2018-01-08T01:01:26.386Z,3.10
2018-01-08T01:03:54.618Z,3.00
2018-01-08T01:06:22.203Z,3.00
2018-01-08T01:08:49.726Z,3.00
2018-01-08T01:11:17.194Z,3.00
2018-01-08T01:13:44.676Z,2.90
2018-01-08T01:16:12.964Z,2.90
2018-01-08T01:18:40.481Z,2.90
2018-01-08T01:21:07.946Z,2.80
2018-01-08T01:23:35.416Z,2.90
2018-01-08T01:26:02.889Z,2.90
2018-01-08T01:28:30.366Z,2.90
2018-01-08T01:30:58.635Z,2.90
2018-01-08T01:33:26.102Z,2.90
2018-01-08T01:35:54.353Z,2.90
2018-01-08T01:38:21.880Z,2.90
2018-01-08T01:40:49.349Z,2.90
2018-01-08T01:43:16.826Z,3.00
2018-01-08T01:45:44.305Z,3.00
2018-01-08T01:48:12.562Z,3.10
2018-01-08T01:50:40.043Z,3.10
2018-01-08T01:53:07.550Z,3.10
2018-01-08T01:55:35.074Z,3.10
2018-01-08T01:58:03.326Z,3.10
2018-01-08T02:00:31.534Z,3.10
2018-01-08T02:02:59.031Z,3.20
2018-01-08T02:05:26.528Z,3.20
2018-01-08T02:07:54.091Z,3.30
2018-01-08T02:10:22.347Z,3.20
2018-01-08T02:12:49.816Z,3.30
2018-01-08T02:15:18.794Z,3.20
2018-01-08T02:17:46.301Z,3.20
2018-01-08T02:20:13.900Z,3.20
2018-01-08T02:22:41.484Z,3.20
2018-01-08T02:25:08.967Z,3.20
2018-01-08T02:27:36.438Z,3.10
2018-01-08T02:30:03.934Z,3.10
2018-01-08T02:32:31.391Z,3.10
2018-01-08T02:34:58.842Z,3.10
2018-01-08T02:37:26.336Z,3.10
2018-01-08T02:39:55.357Z,3.10
2018-01-08T02:42:22.831Z,3.00
2018-01-08T02:44:50.404Z,3.10
2018-01-08T02:47:17.913Z,3.00
2018-01-08T02:49:45.422Z,3.00
2018-01-08T02:52:12.915Z,3.10
2018-01-08T02:54:40.410Z,3.10
2018-01-08T02:57:08.662Z,3.10
2018-01-08T02:59:36.137Z,3.10
2018-01-08T03:02:03.613Z,3.10
2018-01-08T03:04:31.897Z,3.10
2018-01-08T03:06:59.366Z,3.10
2018-01-08T03:09:26.864Z,3.10
2018-01-08T03:11:54.338Z,3.10
2018-01-08T03:14:21.817Z,3.10
2018-01-08T03:16:50.223Z,3.10
2018-01-08T03:19:17.717Z,3.10
2018-01-08T03:21:45.175Z,3.10
2018-01-08T03:24:12.665Z,3.10
2018-01-08T03:26:40.929Z,3.10
2018-01-08T03:29:08.476Z,3.10
2018-01-08T03:31:36.733Z,3.00
2018-01-08T03:34:04.240Z,3.00
2018-01-08T03:36:32.502Z,3.00
2018-01-08T03:38:59.982Z,3.00
2018-01-08T03:41:28.284Z,3.00
2018-01-08T03:43:55.757Z,3.00
2018-01-08T03:46:23.298Z,3.00
2018-01-08T03:48:50.782Z,3.10
2018-01-08T03:51:18.294Z,3.10
2018-01-08T03:53:45.781Z,3.20
2018-01-08T03:56:13.267Z,3.20
2018-01-08T03:58:40.750Z,3.20
2018-01-08T04:01:08.279Z,3.20
2018-01-08T04:03:35.759Z,3.30
2018-01-08T04:06:03.280Z,3.30
2018-01-08T04:08:30.764Z,3.30
2018-01-08T04:10:58.296Z,3.30
2018-01-08T04:13:25.807Z,3.30
2018-01-08T04:15:53.345Z,3.30
2018-01-08T04:18:20.825Z,3.30
2018-01-08T04:20:48.346Z,3.30
2018-01-08T04:23:15.890Z,3.30
2018-01-08T04:25:43.354Z,3.40
2018-01-08T04:28:10.868Z,3.40
2018-01-08T04:30:38.356Z,3.40
2018-01-08T04:33:05.812Z,3.50
2018-01-08T04:35:33.377Z,3.50
2018-01-08T04:38:00.875Z,3.50
2018-01-08T04:40:28.402Z,3.60
2018-01-08T04:42:55.881Z,3.60
2018-01-08T04:45:23.394Z,3.50
2018-01-08T04:47:51.959Z,3.60
2018-01-08T04:50:20.222Z,3.60
2018-01-08T04:52:47.690Z,3.60
2018-01-08T04:55:15.160Z,3.60
2018-01-08T04:57:42.649Z,3.60
2018-01-08T05:00:10.136Z,3.60
2018-01-08T05:02:37.615Z,3.60
2018-01-08T05:05:05.082Z,3.60
2018-01-08T05:07:33.343Z,3.60
2018-01-08T05:10:00.946Z,3.60
2018-01-08T05:12:28.490Z,3.60
2018-01-08T05:14:56.033Z,3.60
2018-01-08T05:17:23.607Z,3.60
2018-01-08T05:19:51.024Z,3.60
2018-01-08T05:22:18.519Z,3.60
2018-01-08T05:24:46.027Z,3.60
2018-01-08T05:27:14.789Z,3.60
2018-01-08T05:29:42.256Z,3.60
2018-01-08T05:32:09.721Z,3.60
2018-01-08T05:34:37.238Z,3.60
2018-01-08T05:37:04.775Z,3.60
2018-01-08T05:39:32.403Z,3.60
2018-01-08T05:42:03.830Z,3.60
2018-01-08T05:44:31.392Z,3.60
2018-01-08T05:47:00.055Z,3.60
2018-01-08T05:49:27.520Z,3.60
2018-01-08T05:51:55.383Z,3.60
2018-01-08T05:54:22.927Z,3.60
2018-01-08T05:56:51.653Z,3.60
2018-01-08T05:59:19.520Z,3.60
2018-01-08T06:01:47.775Z,3.60
2018-01-08T06:04:15.596Z,3.60
2018-01-08T06:06:43.098Z,3.60
2018-01-08T06:09:10.607Z,3.60
2018-01-08T06:11:38.117Z,3.60
2018-01-08T06:14:06.417Z,3.60
2018-01-08T06:16:34.706Z,3.60
2018-01-08T06:19:02.262Z,3.60
2018-01-08T06:21:30.518Z,3.60
2018-01-08T06:23:58.023Z,3.60
2018-01-08T06:26:25.547Z,3.60
2018-01-08T06:28:53.992Z,3.60
2018-01-08T06:31:21.456Z,3.60
2018-01-08T06:33:48.949Z,3.60
2018-01-08T06:36:16.475Z,3.70
2018-01-08T06:38:44.025Z,3.70
2018-01-08T06:41:11.504Z,3.70
2018-01-08T06:43:39.026Z,3.70
2018-01-08T06:46:06.536Z,3.70
2018-01-08T06:48:34.055Z,3.70
2018-01-08T06:51:01.549Z,3.70
2018-01-08T06:53:29.087Z,3.70
2018-01-08T06:55:56.615Z,3.70
2018-01-08T06:58:24.094Z,3.70
2018-01-08T07:00:51.658Z,3.70
2018-01-08T07:03:19.118Z,3.70
2018-01-08T07:05:46.601Z,3.70
2018-01-08T07:08:14.110Z,3.70
2018-01-08T07:10:41.904Z,3.70
2018-01-08T07:13:09.354Z,3.70
2018-01-08T07:15:36.841Z,3.70
2018-01-08T07:18:04.417Z,3.70
2018-01-08T07:20:32.654Z,3.70
2018-01-08T07:23:00.183Z,3.70
2018-01-08T07:25:27.685Z,3.70
2018-01-08T07:27:55.176Z,3.70
2018-01-08T07:30:23.606Z,3.80
2018-01-08T07:32:51.137Z,3.70
2018-01-08T07:35:18.809Z,3.80
2018-01-08T07:37:46.321Z,3.80
2018-01-08T07:40:13.804Z,3.80
2018-01-08T07:42:41.309Z,3.80
2018-01-08T07:45:08.798Z,3.80
2018-01-08T07:47:36.379Z,3.80
2018-01-08T07:50:04.618Z,3.80
2018-01-08T07:52:32.116Z,3.70
2018-01-08T07:55:00.374Z,3.80
2018-01-08T07:57:28.653Z,3.80
2018-01-08T07:59:56.890Z,3.80
2018-01-08T08:02:24.375Z,3.80
2018-01-08T08:04:51.845Z,3.70
2018-01-08T08:07:19.382Z,3.80
2018-01-08T08:09:46.862Z,3.80
2018-01-08T08:12:15.114Z,3.80
2018-01-08T08:14:42.600Z,3.80
2018-01-08T08:17:10.878Z,3.80
2018-01-08T08:19:39.136Z,3.80
2018-01-08T08:22:06.602Z,3.70
2018-01-08T08:24:34.852Z,3.80
2018-01-08T08:27:02.328Z,3.70
2018-01-08T08:29:29.815Z,3.80
2018-01-08T08:31:58.072Z,3.80
2018-01-08T08:34:25.530Z,3.80
2018-01-08T08:36:53.022Z,3.70
2018-01-08T08:39:21.791Z,3.70
2018-01-08T08:41:50.036Z,3.80
2018-01-08T08:44:17.536Z,3.80
2018-01-08T08:46:45.808Z,3.80
2018-01-08T08:49:14.095Z,3.80
2018-01-08T08:51:42.549Z,3.80
2018-01-08T08:54:10.060Z,3.80
2018-01-08T08:56:37.619Z,3.80
2018-01-08T08:59:05.118Z,3.90
2018-01-08T09:01:32.590Z,3.90
2018-01-08T09:04:00.100Z,3.90
2018-01-08T09:06:27.617Z,3.90
2018-01-08T09:08:55.876Z,3.90
2018-01-08T09:11:23.373Z,3.90
2018-01-08T09:13:51.611Z,4.00
2018-01-08T09:16:19.353Z,4.00
2018-01-08T09:18:46.832Z,4.00
2018-01-08T09:21:14.319Z,4.00
2018-01-08T09:23:42.591Z,4.00
2018-01-08T09:26:10.833Z,3.90
2018-01-08T09:28:38.416Z,3.90
2018-01-08T09:31:06.669Z,3.90
2018-01-08T09:33:34.149Z,3.90
2018-01-08T09:36:01.636Z,3.90
2018-01-08T09:38:29.104Z,3.90
2018-01-08T09:40:56.584Z,3.90
2018-01-08T09:43:24.242Z,3.90
2018-01-08T09:45:51.750Z,3.90
2018-01-08T09:48:19.235Z,3.90
2018-01-08T09:50:47.506Z,3.90
2018-01-08T09:53:15.766Z,3.90
2018-01-08T09:55:44.039Z,3.90
2018-01-08T09:58:12.273Z,3.90
2018-01-08T10:00:39.774Z,3.90
2018-01-08T10:03:19.807Z,3.90
2018-01-08T10:05:59.265Z,3.90
2018-01-08T10:08:38.705Z,3.90
2018-01-08T10:11:18.841Z,3.90
2018-01-08T10:13:58.277Z,3.90
2018-01-08T10:16:37.782Z,3.90
2018-01-08T10:19:17.106Z,4.00
2018-01-08T10:21:44.568Z,4.00
2018-01-08T10:24:12.093Z,4.10
2018-01-08T10:26:39.580Z,4.20
2018-01-08T10:29:07.068Z,4.30
2018-01-08T10:31:34.532Z,4.30
2018-01-08T10:34:02.346Z,4.40
2018-01-08T10:36:30.592Z,4.40
2018-01-08T10:38:58.067Z,4.40
2018-01-08T10:41:31.834Z,4.40
2018-01-08T10:44:05.099Z,4.40
2018-01-08T10:46:38.333Z,4.40
2018-01-08T10:49:11.533Z,4.40
2018-01-08T10:51:40.517Z,4.40
2018-01-08T10:54:07.978Z,4.40
2018-01-08T10:56:35.541Z,4.40
2018-01-08T10:59:03.035Z,4.40
2018-01-08T11:01:36.294Z,4.50
2018-01-08T11:04:03.867Z,4.50
2018-01-08T11:06:31.409Z,4.50
2018-01-08T11:08:58.943Z,4.50
2018-01-08T11:11:26.433Z,4.50
2018-01-08T11:13:53.958Z,4.50
2018-01-08T11:16:21.473Z,4.50
2018-01-08T11:18:48.999Z,4.50
2018-01-08T11:21:16.487Z,4.50
2018-01-08T11:23:44.070Z,4.50
2018-01-08T11:26:11.581Z,4.50
2018-01-08T11:28:39.087Z,4.60
2018-01-08T11:31:07.342Z,4.60
2018-01-08T11:33:34.808Z,4.60
2018-01-08T11:36:03.068Z,4.70
2018-01-08T11:38:34.616Z,4.60
2018-01-08T11:41:02.172Z,4.70
2018-01-08T11:43:29.728Z,4.70
2018-01-08T11:45:57.213Z,4.70
2018-01-08T11:48:24.711Z,4.70
2018-01-08T11:50:52.232Z,4.70
2018-01-08T11:53:22.749Z,4.70
2018-01-08T11:55:50.344Z,4.70
2018-01-08T11:58:18.588Z,4.70
2018-01-08T12:00:46.390Z,4.70
2018-01-08T12:03:14.630Z,4.70
2018-01-08T12:05:42.124Z,4.70
2018-01-08T12:08:10.398Z,4.70
2018-01-08T12:10:38.774Z,4.70
2018-01-08T12:13:07.044Z,4.70
2018-01-08T12:15:34.512Z,4.70
2018-01-08T12:18:02.795Z,4.70
2018-01-08T12:20:30.258Z,4.70
2018-01-08T12:22:57.776Z,4.70
2018-01-08T12:25:25.264Z,4.70
2018-01-08T12:27:53.683Z,4.70
2018-01-08T12:30:21.155Z,4.70
2018-01-08T12:32:48.633Z,4.70
2018-01-08T12:35:16.115Z,4.90
2018-01-08T12:37:44.342Z,4.90
2018-01-08T12:40:11.814Z,4.90
2018-01-08T12:42:39.318Z,4.90
2018-01-08T12:45:07.559Z,4.90
2018-01-08T12:47:35.036Z,4.90
2018-01-08T12:50:02.624Z,5.00
2018-01-08T12:52:30.868Z,5.10
2018-01-08T12:54:58.358Z,5.10
2018-01-08T12:57:26.594Z,5.10
2018-01-08T12:59:54.106Z,5.10
2018-01-08T13:02:21.572Z,5.10
2018-01-08T13:04:49.173Z,5.20
2018-01-08T13:07:16.664Z,5.20
2018-01-08T13:09:44.923Z,5.10
2018-01-08T13:12:12.443Z,5.10
2018-01-08T13:14:39.945Z,5.20
2018-01-08T13:17:07.433Z,5.20
2018-01-08T13:19:34.910Z,5.30
2018-01-08T13:22:04.105Z,5.20
2018-01-08T13:24:32.376Z,5.20
2018-01-08T13:27:00.697Z,5.20
2018-01-08T13:29:28.265Z,5.20
2018-01-08T13:31:55.749Z,5.20
2018-01-08T13:34:24.179Z,5.20
2018-01-08T13:36:52.000Z,5.20
2018-01-08T13:39:20.338Z,5.30
2018-01-08T13:41:48.965Z,5.30
2018-01-08T13:44:16.497Z,5.20
2018-01-08T13:46:44.008Z,5.30
2018-01-08T13:49:12.012Z,5.30
2018-01-08T13:51:39.509Z,5.30
2018-01-08T13:54:06.997Z,5.30
2018-01-08T13:56:34.651Z,5.30
2018-01-08T13:59:02.139Z,5.30
2018-01-08T14:01:29.789Z,5.20
2018-01-08T14:03:57.254Z,5.30
2018-01-08T14:06:25.487Z,5.30
2018-01-08T14:08:54.120Z,5.30
2018-01-08T14:11:21.638Z,5.20
2018-01-08T14:13:50.338Z,5.30
2018-01-08T14:16:17.829Z,5.20
2018-01-08T14:18:45.506Z,5.30
2018-01-08T14:21:12.986Z,5.20
2018-01-08T14:23:40.500Z,5.20
2018-01-08T14:26:07.984Z,5.20
2018-01-08T14:28:35.498Z,5.20
2018-01-08T14:31:03.373Z,5.20
2018-01-08T14:33:31.181Z,5.20
2018-01-08T14:35:58.690Z,5.20
2018-01-08T14:38:26.158Z,5.20
2018-01-08T14:40:53.825Z,5.20
2018-01-08T14:43:22.320Z,5.20
2018-01-08T14:45:49.831Z,5.20
2018-01-08T14:48:18.078Z,5.20
2018-01-08T14:50:46.014Z,5.20
2018-01-08T14:53:14.138Z,5.20
2018-01-08T14:55:43.467Z,5.20
2018-01-08T14:58:10.969Z,5.20
2018-01-08T15:00:38.519Z,5.20
2018-01-08T15:03:06.062Z,5.20
2018-01-08T15:05:34.063Z,5.20
2018-01-08T15:08:01.720Z,5.20
2018-01-08T15:10:29.191Z,5.20
2018-01-08T15:12:56.651Z,5.20
2018-01-08T15:15:24.183Z,5.20
2018-01-08T15:17:51.647Z,5.20
2018-01-08T15:20:22.317Z,5.20
2018-01-08T15:22:50.555Z,5.20
2018-01-08T15:25:18.026Z,5.20
2018-01-08T15:27:45.542Z,5.20
2018-01-08T15:30:13.116Z,5.20
2018-01-08T15:32:40.597Z,5.10
2018-01-08T15:35:08.062Z,5.10
2018-01-08T15:37:35.546Z,5.10
2018-01-08T15:40:03.815Z,5.10
2018-01-08T15:42:31.995Z,5.10
2018-01-08T15:44:59.680Z,5.10
2018-01-08T15:47:27.465Z,5.10
2018-01-08T15:49:55.033Z,5.10
2018-01-08T15:52:22.908Z,5.10
2018-01-08T15:54:51.212Z,5.10
2018-01-08T15:57:19.359Z,5.10
2018-01-08T15:59:47.093Z,5.10
2018-01-08T16:02:14.953Z,5.10
2018-01-08T16:04:42.763Z,5.10
2018-01-08T16:07:10.238Z,5.10
2018-01-08T16:09:41.764Z,5.10
2018-01-08T16:12:10.036Z,5.10
2018-01-08T16:14:38.310Z,5.10
2018-01-08T16:17:05.771Z,5.00
2018-01-08T16:19:33.258Z,5.00
2018-01-08T16:22:00.743Z,5.00
2018-01-08T16:24:29.026Z,5.10
2018-01-08T16:26:57.242Z,5.10
2018-01-08T16:29:24.802Z,5.00
2018-01-08T16:31:52.300Z,5.10
2018-01-08T16:34:20.566Z,5.10
2018-01-08T16:36:48.063Z,5.10
2018-01-08T16:39:16.332Z,5.00
2018-01-08T16:41:43.826Z,5.10
2018-01-08T16:44:11.327Z,5.10
2018-01-08T16:46:39.652Z,5.00
2018-01-08T16:49:07.134Z,5.00
2018-01-08T16:51:34.614Z,5.10
2018-01-08T16:54:02.215Z,5.10
2018-01-08T16:56:29.705Z,5.10
2018-01-08T16:58:57.190Z,5.10
2018-01-08T17:01:24.709Z,5.00
2018-01-08T17:03:56.102Z,5.00
2018-01-08T17:06:23.630Z,5.00
2018-01-08T17:08:51.159Z,5.00
2018-01-08T17:11:19.417Z,5.00
2018-01-08T17:13:46.925Z,5.00
2018-01-08T17:16:14.490Z,5.00
2018-01-08T17:18:41.956Z,5.00
2018-01-08T17:21:09.552Z,5.00
2018-01-08T17:23:37.070Z,5.00
2018-01-08T17:26:04.597Z,5.00
2018-01-08T17:28:32.847Z,5.00
2018-01-08T17:31:00.656Z,5.00
2018-01-08T17:33:29.188Z,5.10
2018-01-08T17:35:56.666Z,5.00
2018-01-08T17:38:24.908Z,5.00
2018-01-08T17:40:52.397Z,5.00
2018-01-08T17:43:20.695Z,5.00
2018-01-08T17:45:49.145Z,5.00
2018-01-08T17:48:17.400Z,5.00
2018-01-08T17:50:46.728Z,5.00
2018-01-08T17:53:14.240Z,5.00
2018-01-08T17:55:41.724Z,5.00
2018-01-08T17:58:09.257Z,5.00
2018-01-08T18:00:36.748Z,4.90
2018-01-08T18:03:04.257Z,4.90
2018-01-08T18:05:31.717Z,4.90
2018-01-08T18:07:59.233Z,4.90
2018-01-08T18:10:26.715Z,4.80
2018-01-08T18:12:54.941Z,4.80
2018-01-08T18:15:22.414Z,4.80
2018-01-08T18:17:49.924Z,4.80
2018-01-08T18:20:18.191Z,4.80
2018-01-08T18:22:46.414Z,4.70
2018-01-08T18:25:13.931Z,4.70
2018-01-08T18:27:42.176Z,4.70
2018-01-08T18:30:09.648Z,4.70
2018-01-08T18:32:37.900Z,4.70
2018-01-08T18:35:05.385Z,4.70
2018-01-08T18:37:33.709Z,4.70
2018-01-08T18:40:01.182Z,4.70
2018-01-08T18:42:28.669Z,4.70
2018-01-08T18:44:56.874Z,4.70
2018-01-08T18:47:24.414Z,4.80
2018-01-08T18:49:51.912Z,4.70
2018-01-08T18:52:19.432Z,4.70
2018-01-08T18:54:47.694Z,4.70
2018-01-08T18:57:15.168Z,4.70
2018-01-08T18:59:43.429Z,4.70
2018-01-08T19:02:10.930Z,4.70
2018-01-08T19:04:38.963Z,4.70
2018-01-08T19:07:09.339Z,4.70
2018-01-08T19:09:37.040Z,4.70
2018-01-08T19:12:06.091Z,4.60
2018-01-08T19:14:33.619Z,4.70
2018-01-08T19:17:01.893Z,4.70
2018-01-08T19:19:30.114Z,4.60
2018-01-08T19:21:57.605Z,4.70
2018-01-08T19:24:25.114Z,4.60
2018-01-08T19:26:52.644Z,4.60
2018-01-08T19:29:20.181Z,4.70
2018-01-08T19:31:47.672Z,4.70
2018-01-08T19:34:15.459Z,4.60
2018-01-08T19:36:43.617Z,4.50
2018-01-08T19:39:12.509Z,4.60
2018-01-08T19:41:41.699Z,4.50
2018-01-08T19:44:10.924Z,4.50
2018-01-08T19:46:40.072Z,4.50
2018-01-08T19:49:07.723Z,4.50
2018-01-08T19:51:35.380Z,4.50
2018-01-08T19:54:10.838Z,4.50
2018-01-08T19:56:38.376Z,4.50
2018-01-08T19:59:09.336Z,4.40
2018-01-08T20:01:36.845Z,4.40
2018-01-08T20:04:07.795Z,4.30
2018-01-08T20:06:35.634Z,4.30
2018-01-08T20:09:04.565Z,4.30
2018-01-08T20:11:32.082Z,4.30
2018-01-08T20:14:01.408Z,4.20
2018-01-08T20:16:28.885Z,4.20
2018-01-08T20:18:56.401Z,4.20
2018-01-08T20:21:24.652Z,4.10
2018-01-08T20:23:52.987Z,4.10
2018-01-08T20:26:20.476Z,4.10
2018-01-08T20:28:47.989Z,4.00
2018-01-08T20:31:16.234Z,4.00
2018-01-08T20:33:48.329Z,4.00
2018-01-08T20:36:16.782Z,4.00
2018-01-08T20:38:44.281Z,4.00
2018-01-08T20:41:11.778Z,4.00
2018-01-08T20:43:39.290Z,4.00
2018-01-08T20:46:08.395Z,3.90
2018-01-08T20:48:35.865Z,3.90
2018-01-08T20:51:03.343Z,3.80
2018-01-08T20:53:31.202Z,3.80
2018-01-08T20:55:58.724Z,3.80
2018-01-08T20:58:27.783Z,3.70
2018-01-08T21:00:55.289Z,3.70
2018-01-08T21:03:22.792Z,3.70
2018-01-08T21:05:54.103Z,3.70
2018-01-08T21:08:21.787Z,3.60
2018-01-08T21:10:49.304Z,3.60
2018-01-08T21:13:17.541Z,3.60
2018-01-08T21:15:45.781Z,3.60
2018-01-08T21:18:13.304Z,3.60
2018-01-08T21:20:42.216Z,3.50
2018-01-08T21:23:09.775Z,3.50
2018-01-08T21:25:38.032Z,3.50
2018-01-08T21:28:06.115Z,3.50
2018-01-08T21:30:34.396Z,3.40
2018-01-08T21:33:01.889Z,3.40
2018-01-08T21:35:29.432Z,3.40
2018-01-08T21:37:57.815Z,3.40
2018-01-08T21:40:26.224Z,3.40
2018-01-08T21:42:53.715Z,3.40
2018-01-08T21:45:21.829Z,3.30
2018-01-08T21:47:49.303Z,3.40
2018-01-08T21:50:17.454Z,3.30
2018-01-08T21:52:46.182Z,3.30
2018-01-08T21:55:13.682Z,3.40
2018-01-08T21:57:41.978Z,3.40
2018-01-08T22:00:09.474Z,3.40
2018-01-08T22:02:36.985Z,3.40
2018-01-08T22:05:05.228Z,3.40
2018-01-08T22:07:32.705Z,3.40
2018-01-08T22:10:00.222Z,3.40
2018-01-08T22:12:27.701Z,3.30
2018-01-08T22:14:55.207Z,3.30
2018-01-08T22:17:22.719Z,3.30
2018-01-08T22:19:50.195Z,3.30
2018-01-08T22:22:17.699Z,3.30
2018-01-08T22:24:45.163Z,3.40
2018-01-08T22:27:12.662Z,3.40
2018-01-08T22:29:40.144Z,3.30
2018-01-08T22:32:07.634Z,3.30
2018-01-08T22:34:35.117Z,3.30
2018-01-08T22:37:02.627Z,3.30
2018-01-08T22:39:31.235Z,3.40
2018-01-08T22:41:58.729Z,3.30
2018-01-08T22:44:26.207Z,3.30
2018-01-08T22:46:53.680Z,3.30
2018-01-08T22:49:21.216Z,3.30
2018-01-08T22:51:48.752Z,3.30
2018-01-08T22:54:16.234Z,3.30
2018-01-08T22:56:44.022Z,3.40
2018-01-08T22:59:12.318Z,3.40
2018-01-08T23:01:39.821Z,3.40
2018-01-08T23:04:07.297Z,3.40
2018-01-08T23:06:36.278Z,3.40
2018-01-08T23:09:03.758Z,3.40
2018-01-08T23:11:31.258Z,3.30
2018-01-08T23:13:58.728Z,3.30
2018-01-08T23:16:26.220Z,3.30
2018-01-08T23:18:53.694Z,3.30
2018-01-08T23:21:21.177Z,3.40
2018-01-08T23:23:48.664Z,3.40
2018-01-08T23:26:16.128Z,3.40
2018-01-08T23:28:43.661Z,3.40
2018-01-08T23:31:11.128Z,3.40
2018-01-08T23:33:38.615Z,3.40
2018-01-08T23:36:06.110Z,3.40
2018-01-08T23:38:34.369Z,3.40
2018-01-08T23:41:01.837Z,3.40
2018-01-08T23:43:29.441Z,3.40
2018-01-08T23:45:56.940Z,3.40
2018-01-08T23:48:24.455Z,3.40
2018-01-08T23:50:51.945Z,3.30
2018-01-08T23:53:19.438Z,3.40
2018-01-08T23:55:47.686Z,3.30
2018-01-08T23:58:15.183Z,3.30
